Time,TemperatureF,DewpointF,PressureIn,WindDirection,WindDirectionDegrees,WindSpeedMPH,WindSpeedGustMPH,Humidity,HourlyPrecipIn,Conditions,Clouds,dailyrainin,SoftwareType,DateUTC
2013-02-26 00:04:00,41.2,36.7,29.67,ESE,112,9.4,-999.0,84,-99.99,,,0.00,Acu-Link.com,2013-02-26 06:04:00,
2013-02-26 00:19:00,41.4,36.3,29.67,WSW,247,11.0,-999.0,82,-99.99,,,0.00,Acu-Link.com,2013-02-26 06:19:00,
2013-02-26 00:34:00,41.4,36.3,29.68,WSW,247,10.3,-999.0,82,-99.99,,,0.00,Acu-Link.com,2013-02-26 06:34:00,
2013-02-26 00:49:00,41.7,36.3,29.68,South,180,11.4,-999.0,81,-99.99,,,0.00,Acu-Link.com,2013-02-26 06:49:00,
2013-02-26 01:05:00,41.7,36.3,29.69,WSW,247,12.5,-999.0,81,-99.99,,,0.00,Acu-Link.com,2013-02-26 07:05:00,
2013-02-26 01:20:00,41.7,36.3,29.70,SSW,202,14.1,-999.0,81,-99.99,,,0.00,Acu-Link.com,2013-02-26 07:20:00,
2013-02-26 01:35:00,41.7,35.7,29.71,SE,135,9.4,-999.0,79,-99.99,,,0.00,Acu-Link.com,2013-02-26 07:35:00,
2013-02-26 01:50:00,41.7,35.7,29.71,SSW,202,11.9,-999.0,79,-99.99,,,0.00,Acu-Link.com,2013-02-26 07:50:00,
2013-02-26 02:05:00,41.5,35.2,29.71,SW,225,13.4,-999.0,78,-99.99,,,0.00,Acu-Link.com,2013-02-26 08:05:00,
2013-02-26 02:21:00,41.4,35.0,29.71,West,270,8.3,-999.0,78,-99.99,,,0.00,Acu-Link.com,2013-02-26 08:21:00,
2013-02-26 02:36:00,41.2,34.9,29.71,East,90,5.8,-999.0,78,-99.99,,,0.00,Acu-Link.com,2013-02-26 08:36:00,
2013-02-26 02:51:00,41.2,34.9,29.71,WSW,247,8.9,-999.0,78,-99.99,,,0.00,Acu-Link.com,2013-02-26 08:51:00,
2013-02-26 06:04:00,41.2,34.9,29.78,WNW,292,8.3,-999.0,78,-99.99,,,0.00,Acu-Link.com,2013-02-26 12:04:00,
2013-02-26 06:19:00,41.2,34.9,29.78,NNW,337,7.4,-999.0,78,-99.99,,,0.00,Acu-Link.com,2013-02-26 12:19:00,
2013-02-26 06:34:00,41.4,35.0,29.79,West,270,11.4,-999.0,78,-99.99,,,0.00,Acu-Link.com,2013-02-26 12:34:00,
2013-02-26 06:49:00,41.4,35.0,29.80,SE,135,11.4,-999.0,78,-99.99,,,0.00,Acu-Link.com,2013-02-26 12:49:00,
2013-02-26 07:05:00,41.4,35.3,29.81,SSE,157,6.3,-999.0,79,-99.99,,,0.00,Acu-Link.com,2013-02-26 13:05:00,
2013-02-26 07:20:00,41.4,35.3,29.81,North,0,11.9,-999.0,79,-99.99,,,0.00,Acu-Link.com,2013-02-26 13:20:00,
2013-02-26 07:35:00,41.4,35.3,29.81,WSW,247,8.3,-999.0,79,-99.99,,,0.00,Acu-Link.com,2013-02-26 13:35:00,
2013-02-26 07:50:00,41.7,35.7,29.83,NW,315,8.9,-999.0,79,-99.99,,,0.00,Acu-Link.com,2013-02-26 13:50:00,
2013-02-26 08:05:00,41.7,35.7,29.84,NW,315,4.7,-999.0,79,-99.99,,,0.00,Acu-Link.com,2013-02-26 14:05:00,
2013-02-26 08:21:00,41.9,35.9,29.84,SW,225,3.1,-999.0,79,-99.99,,,0.00,Acu-Link.com,2013-02-26 14:21:00,
2013-02-26 08:36:00,42.8,36.1,29.84,SSE,157,3.8,-999.0,77,-99.99,,,0.00,Acu-Link.com,2013-02-26 14:36:00,
2013-02-26 08:51:00,43.0,35.9,29.85,ESE,112,3.8,-999.0,76,-99.99,,,0.00,Acu-Link.com,2013-02-26 14:51:00,
2013-02-26 09:06:00,43.7,36.6,29.86,WNW,292,9.4,-999.0,76,-99.99,,,0.00,Acu-Link.com,2013-02-26 15:06:00,
2013-02-26 09:21:00,44.2,36.8,29.86,WNW,292,4.7,-999.0,75,-99.99,,,0.00,Acu-Link.com,2013-02-26 15:21:00,
2013-02-26 09:37:00,44.2,36.5,29.87,NNW,337,9.8,-999.0,74,-99.99,,,0.00,Acu-Link.com,2013-02-26 15:37:00,
2013-02-26 09:52:00,45.5,37.4,29.87,West,270,8.9,-999.0,73,-99.99,,,0.00,Acu-Link.com,2013-02-26 15:52:00,
2013-02-26 10:07:00,46.9,37.7,29.87,NE,45,9.4,-999.0,70,-99.99,,,0.00,Acu-Link.com,2013-02-26 16:07:00,
2013-02-26 10:22:00,48.7,37.5,29.87,South,180,7.4,-999.0,65,-99.99,,,0.00,Acu-Link.com,2013-02-26 16:22:00,
2013-02-26 10:37:00,49.3,38.8,29.88,NNE,22,9.4,-999.0,67,-99.99,,,0.00,Acu-Link.com,2013-02-26 16:37:00,
2013-02-26 10:53:00,49.5,37.4,29.89,WSW,247,9.8,-999.0,63,-99.99,,,0.00,Acu-Link.com,2013-02-26 16:53:00,
2013-02-26 11:08:00,50.9,38.4,29.89,South,180,7.4,-999.0,62,-99.99,,,0.00,Acu-Link.com,2013-02-26 17:08:00,
2013-02-26 11:23:00,53.1,39.1,29.90,NNW,337,11.4,-999.0,59,-99.99,,,0.00,Acu-Link.com,2013-02-26 17:23:00,
2013-02-26 11:38:00,53.8,39.4,29.90,West,270,6.7,-999.0,58,-99.99,,,0.00,Acu-Link.com,2013-02-26 17:38:00,
2013-02-26 11:53:00,54.3,39.0,29.91,NNE,22,7.8,-999.0,56,-99.99,,,0.00,Acu-Link.com,2013-02-26 17:53:00,
2013-02-26 12:09:00,55.2,39.3,29.91,NNW,337,6.7,-999.0,55,-99.99,,,0.00,Acu-Link.com,2013-02-26 18:09:00,
2013-02-26 12:24:00,55.8,39.8,29.90,SSW,202,12.5,-999.0,55,-99.99,,,0.00,Acu-Link.com,2013-02-26 18:24:00,
2013-02-26 12:39:00,55.8,39.4,29.90,NW,315,6.3,-999.0,54,-99.99,,,0.00,Acu-Link.com,2013-02-26 18:39:00,
2013-02-26 12:54:00,57.4,39.4,29.90,WNW,292,7.4,-999.0,51,-99.99,,,0.00,Acu-Link.com,2013-02-26 18:54:00,
2013-02-26 13:10:00,57.9,40.4,29.89,West,270,7.4,-999.0,52,-99.99,,,0.00,Acu-Link.com,2013-02-26 19:10:00,
2013-02-26 13:25:00,57.2,38.7,29.88,NNE,22,7.4,-999.0,50,-99.99,,,0.00,Acu-Link.com,2013-02-26 19:25:00,
2013-02-26 13:40:00,58.3,39.7,29.87,East,90,2.7,-999.0,50,-99.99,,,0.00,Acu-Link.com,2013-02-26 19:40:00,
2013-02-26 13:55:00,59.2,40.0,29.87,WNW,292,10.3,-999.0,49,-99.99,,,0.00,Acu-Link.com,2013-02-26 19:55:00,
2013-02-26 14:10:00,58.8,39.7,29.87,WSW,247,8.3,-999.0,49,-99.99,,,0.00,Acu-Link.com,2013-02-26 20:10:00,
2013-02-26 14:26:00,59.2,39.5,29.86,NNW,337,3.1,-999.0,48,-99.99,,,0.00,Acu-Link.com,2013-02-26 20:26:00,
2013-02-26 14:41:00,59.2,38.4,29.86,NW,315,4.7,-999.0,46,-99.99,,,0.00,Acu-Link.com,2013-02-26 20:41:00,
2013-02-26 14:56:00,60.3,38.8,29.86,West,270,4.7,-999.0,45,-99.99,,,0.00,Acu-Link.com,2013-02-26 20:56:00,
2013-02-26 15:11:00,59.2,38.4,29.86,WSW,247,2.7,-999.0,46,-99.99,,,0.00,Acu-Link.com,2013-02-26 21:11:00,
2013-02-26 15:26:00,59.9,37.9,29.85,NW,315,7.8,-999.0,44,-99.99,,,0.00,Acu-Link.com,2013-02-26 21:26:00,
2013-02-26 15:42:00,60.3,38.3,29.85,NE,45,8.3,-999.0,44,-99.99,,,0.00,Acu-Link.com,2013-02-26 21:42:00,
2013-02-26 15:57:00,59.7,37.8,29.85,WNW,292,2.7,-999.0,44,-99.99,,,0.00,Acu-Link.com,2013-02-26 21:57:00,
2013-02-26 16:12:00,60.3,37.7,29.85,NW,315,3.8,-999.0,43,-99.99,,,0.00,Acu-Link.com,2013-02-26 22:12:00,
2013-02-26 16:27:00,59.7,37.2,29.85,NNW,337,6.7,-999.0,43,-99.99,,,0.00,Acu-Link.com,2013-02-26 22:27:00,
2013-02-26 16:42:00,59.4,37.4,29.85,WNW,292,3.1,-999.0,44,-99.99,,,0.00,Acu-Link.com,2013-02-26 22:42:00,
2013-02-26 16:58:00,59.2,37.3,29.85,NW,315,5.1,-999.0,44,-99.99,,,0.00,Acu-Link.com,2013-02-26 22:58:00,
2013-02-26 17:13:00,58.8,37.0,29.86,North,0,4.7,-999.0,44,-99.99,,,0.00,Acu-Link.com,2013-02-26 23:13:00,
2013-02-26 17:28:00,60.1,36.9,29.86,NW,315,2.7,-999.0,42,-99.99,,,0.00,Acu-Link.com,2013-02-26 23:28:00,
2013-02-26 17:43:00,58.5,36.6,29.86,West,270,5.8,-999.0,44,-99.99,,,0.00,Acu-Link.com,2013-02-26 23:43:00,
2013-02-26 17:59:00,57.2,36.6,29.86,North,0,5.1,-999.0,46,-99.99,,,0.00,Acu-Link.com,2013-02-26 23:59:00,
2013-02-26 18:14:00,54.9,36.6,29.86,SSW,202,0.0,-999.0,50,-99.99,,,0.00,Acu-Link.com,2013-02-27 00:14:00,
2013-02-26 18:29:00,53.1,35.9,29.87,North,0,0.0,-999.0,52,-99.99,,,0.00,Acu-Link.com,2013-02-27 00:29:00,
2013-02-26 18:44:00,50.9,35.3,29.87,West,270,0.0,-999.0,55,-99.99,,,0.00,Acu-Link.com,2013-02-27 00:44:00,
2013-02-26 18:59:00,48.9,34.8,29.87,WNW,292,0.0,-999.0,58,-99.99,,,0.00,Acu-Link.com,2013-02-27 00:59:00,
2013-02-26 19:15:00,47.3,34.5,29.88,WSW,247,0.0,-999.0,61,-99.99,,,0.00,Acu-Link.com,2013-02-27 01:15:00,
2013-02-26 19:30:00,46.2,34.7,29.89,WSW,247,0.0,-999.0,64,-99.99,,,0.00,Acu-Link.com,2013-02-27 01:30:00,
2013-02-26 19:45:00,45.7,34.2,29.89,SW,225,0.0,-999.0,64,-99.99,,,0.00,Acu-Link.com,2013-02-27 01:45:00,
2013-02-26 20:00:00,45.5,34.0,29.89,SSW,202,0.0,-999.0,64,-99.99,,,0.00,Acu-Link.com,2013-02-27 02:00:00,
2013-02-26 20:15:00,44.6,34.0,29.89,West,270,0.0,-999.0,66,-99.99,,,0.00,Acu-Link.com,2013-02-27 02:15:00,
2013-02-26 20:31:00,43.3,34.6,29.90,ENE,67,0.0,-999.0,71,-99.99,,,0.00,Acu-Link.com,2013-02-27 02:31:00,
2013-02-26 20:46:00,42.1,34.1,29.90,East,90,0.0,-999.0,73,-99.99,,,0.00,Acu-Link.com,2013-02-27 02:46:00,
2013-02-26 21:01:00,41.2,33.9,29.91,SE,135,0.0,-999.0,75,-99.99,,,0.00,Acu-Link.com,2013-02-27 03:01:00,
2013-02-26 21:16:00,40.8,33.5,29.92,South,180,0.0,-999.0,75,-99.99,,,0.00,Acu-Link.com,2013-02-27 03:16:00,
2013-02-26 21:31:00,40.1,34.4,29.93,ENE,67,0.0,-999.0,80,-99.99,,,0.00,Acu-Link.com,2013-02-27 03:31:00,
2013-02-26 21:47:00,39.9,34.6,29.93,ESE,112,0.0,-999.0,81,-99.99,,,0.00,Acu-Link.com,2013-02-27 03:47:00,
2013-02-26 22:02:00,40.5,35.4,29.94,ESE,112,0.0,-999.0,82,-99.99,,,0.00,Acu-Link.com,2013-02-27 04:02:00,
2013-02-26 22:17:00,40.6,35.6,29.94,NNE,22,0.0,-999.0,82,-99.99,,,0.00,Acu-Link.com,2013-02-27 04:17:00,
2013-02-26 22:32:00,40.1,35.4,29.94,SE,135,0.0,-999.0,83,-99.99,,,0.00,Acu-Link.com,2013-02-27 04:32:00,
2013-02-26 22:48:00,40.5,35.7,29.94,East,90,0.0,-999.0,83,-99.99,,,0.00,Acu-Link.com,2013-02-27 04:48:00,
2013-02-26 23:03:00,41.2,36.1,29.93,SSE,157,0.0,-999.0,82,-99.99,,,0.00,Acu-Link.com,2013-02-27 05:03:00,
2013-02-26 23:18:00,41.4,36.0,29.93,ESE,112,2.2,-999.0,81,-99.99,,,0.00,Acu-Link.com,2013-02-27 05:18:00,
2013-02-26 23:33:00,41.0,35.3,29.93,East,90,3.1,-999.0,80,-99.99,,,0.00,Acu-Link.com,2013-02-27 05:33:00,
2013-02-26 23:48:00,40.3,35.5,29.92,ESE,112,1.6,-999.0,83,-99.99,,,0.00,Acu-Link.com,2013-02-27 05:48:00,